Huvudsida
METAR-TAF:

METAR-TAF

Flygplatser :

Beira, Moçambique

latitud: 19-48S, longitud: 034-54E, höjd: 8 m

Aktuellt väderrapport

Denna rapport gjordes för 59 minuter sedan, klockan 12:00 UTC
Vind 11 kt från sydost
Temperatur 28°C
Fuktighet 66%
Tryck 1015 hPa
Sikt 10 km eller mer
Få moln på en höjd av 1800 ft

METAR: FQBR 191200Z 14011KT 9999 FEW018 28/21 Q1015

Tid: 14:59 (12:59 UTC)

Väderprognos

Denna rapport gjordes för 2 timmar och 59 minuter sedan, klockan 10:00 UTC
Prognos gäller från 19 kl. 12 UTC till 20 kl. 18 UTC
Vind 12 kt från ost
Sikt 10 km eller mer
Få moln på en höjd av 2000 ft
Blir
från 20 kl. 00 UTC till 20 kl. 02 UTC
Vind 7 kt från nord
Blir
från 20 kl. 12 UTC till 20 kl. 14 UTC
Vind 10 kt från ost i byarna ända upp till 20 kt

TAF: FQBR 191000Z 1912/2018 09012KT 9999 FEW020 TX30/1913Z TN17/2002Z BECMG 2000/2002 36007KT BECMG 2012/2014 10010G20KT

Aktuella väderrapporter och prognoser från 4000 flygplatser (METAR- och TAF-rapporter).

De tillgängliga stationerna syns som gula och röda prickar på kartan.

För musen över prickarna för att se namnen på stationerna.

Klicka sedan för att få väderrapporter och prognoser.

För att ändra kartan: Klicka på de gröna knapparna med ett svart kors på för att zooma in; den gröna knappen med ett streck på för att zooma ut; eller på de gröna pilarna för angränsande kartor.


METAR-TAF: